Hlavní strana
METAR-TAF:

METAR-TAF

Letiště :

Ouagadougou, Burkina Faso

zeměpisná šířka: 12-21N, zeměpisná délka: 001-31W, výška: 316 m

Aktuální stav počasí

Zpráva byla vytvořena před 1 hodinou a 18 minutami, v 08:00 UTC
Východní vítr 7 kt
Teplota 20°C
Vlhkost vzduchu 19%
Tlak 1016 hPa
Viditelnost: 4000 m
rozsáhlý prach

METAR: DFFD 240800Z 08007KT 4000 DU NSC 20/M04 Q1016 NOSIG

Čas: 09:18 (09:18 UTC)

Předpověď počasí

Zpráva byla vytvořena před 4 hodinami a 18 minutami, v 05:00 UTC
Předpověď platná od 24 v 06 UTC do 25 v 12 UTC
Východní vítr 10 kt
Viditelnost: 8000 m
Dočasný
od 24 v 06 UTC do 24 v 11 UTC
Viditelnost: 3500 m
rozsáhlý prach
Dočasný
od 24 v 17 UTC do 24 v 20 UTC
Viditelnost: 4000 m
rozsáhlý prach
Dočasný
od 25 v 06 UTC do 25 v 11 UTC
Viditelnost: 4000 m
rozsáhlý prach

TAF: DFFD 240500Z 2406/2512 09010KT 8000 NSC TEMPO 2406/2411 3500 DU TEMPO 2417/2420 4000 DU TEMPO 2506/2511 4000 DU

Stav a předpovědi počasí z více než 4 000 letišť (zprávy METAR a TAF).

Červené a žluté tečky na mapě představují dostupné meteorologické stanice.

Když kurzor umístíte na tečku, zobrazí se název stanice.

Pak kliknutím zobrazíte stav a předpověď počasí.

Chcete-li změnit mapu, kliknutím na zelené tlačítko se znaménkem +mapu přiblížíte, kliknutím na zelené tlačítko se znaménkem – mapu oddálíte a kliknutím na zelené šipky přejdete na sousední mapy.


METAR-TAF: